sensor_id;sensor_type;location;lat;lon;timestamp;P1;durP1;ratioP1;P2;durP2;ratioP2
73315;SDS011;61545;53.726;-0.444;2023-02-18T00:04:57;12.3;;;4.3;;
73315;SDS011;61545;53.726;-0.444;2023-02-18T00:09:57;14.9;;;4.5;;
73315;SDS011;61545;53.726;-0.444;2023-02-18T00:14:57;13.3;;;3.7;;
73315;SDS011;61545;53.726;-0.444;2023-02-18T00:19:57;11.4;;;4.1;;
73315;SDS011;61545;53.726;-0.444;2023-02-18T00:24:57;12.0;;;4.6;;
73315;SDS011;61545;53.726;-0.444;2023-02-18T00:29:57;14.3;;;6.6;;
73315;SDS011;61545;53.726;-0.444;2023-02-18T00:34:57;14.3;;;6.6;;
73315;SDS011;61545;53.726;-0.444;2023-02-18T00:39:57;14.8;;;7.5;;
73315;SDS011;61545;53.726;-0.444;2023-02-18T00:44:57;13.4;;;7;;
73315;SDS011;61545;53.726;-0.444;2023-02-18T00:49:57;14.6;;;6.7;;
73315;SDS011;61545;53.726;-0.444;2023-02-18T00:54:57;10.0;;;5.6;;
73315;SDS011;61545;53.726;-0.444;2023-02-18T00:59:57;8.3;;;5.2;;
73315;SDS011;61545;53.726;-0.444;2023-02-18T01:04:57;8.3;;;5.2;;
73315;SDS011;61545;53.726;-0.444;2023-02-18T01:09:57;8.8;;;5.1;;
73315;SDS011;61545;53.726;-0.444;2023-02-18T01:14:57;7.3;;;4.8;;
73315;SDS011;61545;53.726;-0.444;2023-02-18T01:19:57;7.2;;;5.3;;
73315;SDS011;61545;53.726;-0.444;2023-02-18T01:24:57;7.7;;;5.7;;
73315;SDS011;61545;53.726;-0.444;2023-02-18T01:29:57;10.1;;;6.1;;
73315;SDS011;61545;53.726;-0.444;2023-02-18T01:34:59;10.1;;;6.1;;
73315;SDS011;61545;53.726;-0.444;2023-02-18T01:39:57;9.7;;;6.9;;
73315;SDS011;61545;53.726;-0.444;2023-02-18T01:45:37;8.1;;;6;;
73315;SDS011;61545;53.726;-0.444;2023-02-18T01:49:57;8.3;;;6.3;;
73315;SDS011;61545;53.726;-0.444;2023-02-18T01:54:57;7.9;;;6.2;;
73315;SDS011;61545;53.726;-0.444;2023-02-18T01:59:58;7.3;;;5.4;;
73315;SDS011;61545;53.726;-0.444;2023-02-18T02:04:57;7.3;;;5.4;;
73315;SDS011;61545;53.726;-0.444;2023-02-18T02:09:57;8.1;;;5;;
73315;SDS011;61545;53.726;-0.444;2023-02-18T02:15:05;6.8;;;4.5;;
73315;SDS011;61545;53.726;-0.444;2023-02-18T02:20:24;4.9;;;3.4;;
73315;SDS011;61545;53.726;-0.444;2023-02-18T02:25:03;3.9;;;2.9;;
73315;SDS011;61545;53.726;-0.444;2023-02-18T02:34:57;3.2;;;2.5;;
73315;SDS011;61545;53.726;-0.444;2023-02-18T02:40:03;2.8;;;2.3;;
73315;SDS011;61545;53.726;-0.444;2023-02-18T02:44:59;3.4;;;2.2;;
73315;SDS011;61545;53.726;-0.444;2023-02-18T02:50:00;4.2;;;2.2;;
73315;SDS011;61545;53.726;-0.444;2023-02-18T02:54:57;3.3;;;1.8;;
73315;SDS011;61545;53.726;-0.444;2023-02-18T02:59:58;2.8;;;1.6;;
73315;SDS011;61545;53.726;-0.444;2023-02-18T03:05:02;2.8;;;1.6;;
73315;SDS011;61545;53.726;-0.444;2023-02-18T03:10:07;4.9;;;1.6;;
73315;SDS011;61545;53.726;-0.444;2023-02-18T03:14:59;5.8;;;1.5;;
73315;SDS011;61545;53.726;-0.444;2023-02-18T03:20:03;3.6;;;1.4;;
73315;SDS011;61545;53.726;-0.444;2023-02-18T03:24:57;1.7;;;1;;
73315;SDS011;61545;53.726;-0.444;2023-02-18T03:30:00;2.4;;;0.7;;
73315;SDS011;61545;53.726;-0.444;2023-02-18T03:34:59;2.4;;;0.7;;
73315;SDS011;61545;53.726;-0.444;2023-02-18T03:39:58;2.6;;;0.9;;
73315;SDS011;61545;53.726;-0.444;2023-02-18T03:44:57;3.6;;;0.8;;
73315;SDS011;61545;53.726;-0.444;2023-02-18T03:49:57;4.1;;;1;;
73315;SDS011;61545;53.726;-0.444;2023-02-18T03:54:57;7.8;;;1.3;;
73315;SDS011;61545;53.726;-0.444;2023-02-18T03:59:57;4.2;;;1.2;;
73315;SDS011;61545;53.726;-0.444;2023-02-18T04:04:57;4.2;;;1.2;;
73315;SDS011;61545;53.726;-0.444;2023-02-18T04:09:57;3.6;;;1.5;;
73315;SDS011;61545;53.726;-0.444;2023-02-18T04:14:57;3.4;;;1.1;;
73315;SDS011;61545;53.726;-0.444;2023-02-18T04:19:57;2.5;;;1;;
73315;SDS011;61545;53.726;-0.444;2023-02-18T04:24:57;4.9;;;1.1;;
73315;SDS011;61545;53.726;-0.444;2023-02-18T04:29:57;5.1;;;1.2;;
73315;SDS011;61545;53.726;-0.444;2023-02-18T04:34:57;5.1;;;1.2;;
73315;SDS011;61545;53.726;-0.444;2023-02-18T04:39:57;5.3;;;1.5;;
73315;SDS011;61545;53.726;-0.444;2023-02-18T04:44:57;7.1;;;1.7;;
73315;SDS011;61545;53.726;-0.444;2023-02-18T04:49:57;5.9;;;1.4;;
73315;SDS011;61545;53.726;-0.444;2023-02-18T04:54:57;4.9;;;1.6;;
73315;SDS011;61545;53.726;-0.444;2023-02-18T04:59:57;3.6;;;1.8;;
73315;SDS011;61545;53.726;-0.444;2023-02-18T05:04:57;3.6;;;1.8;;
73315;SDS011;61545;53.726;-0.444;2023-02-18T05:09:57;5.7;;;1.7;;
73315;SDS011;61545;53.726;-0.444;2023-02-18T05:14:57;4.0;;;1.6;;
73315;SDS011;61545;53.726;-0.444;2023-02-18T05:19:57;5.4;;;2;;
73315;SDS011;61545;53.726;-0.444;2023-02-18T05:24:57;6.6;;;1.7;;
73315;SDS011;61545;53.726;-0.444;2023-02-18T05:29:57;5.6;;;1.6;;
73315;SDS011;61545;53.726;-0.444;2023-02-18T05:34:57;5.6;;;1.6;;
73315;SDS011;61545;53.726;-0.444;2023-02-18T05:39:57;4.2;;;1.3;;
73315;SDS011;61545;53.726;-0.444;2023-02-18T05:44:57;3.4;;;1.4;;
73315;SDS011;61545;53.726;-0.444;2023-02-18T05:49:57;2.8;;;1.1;;
73315;SDS011;61545;53.726;-0.444;2023-02-18T05:54:57;5.0;;;1;;
73315;SDS011;61545;53.726;-0.444;2023-02-18T05:59:57;1.6;;;0.8;;
73315;SDS011;61545;53.726;-0.444;2023-02-18T06:04:57;1.6;;;0.8;;
73315;SDS011;61545;53.726;-0.444;2023-02-18T06:09:57;1.5;;;0.8;;
73315;SDS011;61545;53.726;-0.444;2023-02-18T06:14:57;0.9;;;0.5;;
73315;SDS011;61545;53.726;-0.444;2023-02-18T06:19:57;2.0;;;0.9;;
73315;SDS011;61545;53.726;-0.444;2023-02-18T06:24:57;3.5;;;1.2;;
73315;SDS011;61545;53.726;-0.444;2023-02-18T06:29:57;3.6;;;1;;
73315;SDS011;61545;53.726;-0.444;2023-02-18T06:34:57;3.6;;;1;;
73315;SDS011;61545;53.726;-0.444;2023-02-18T06:39:57;4.6;;;1.2;;
73315;SDS011;61545;53.726;-0.444;2023-02-18T06:44:57;5.0;;;1;;
73315;SDS011;61545;53.726;-0.444;2023-02-18T06:49:57;3.3;;;0.8;;
73315;SDS011;61545;53.726;-0.444;2023-02-18T06:54:57;3.4;;;0.9;;
73315;SDS011;61545;53.726;-0.444;2023-02-18T06:59:57;4.1;;;0.9;;
73315;SDS011;61545;53.726;-0.444;2023-02-18T07:04:57;4.1;;;0.9;;
73315;SDS011;61545;53.726;-0.444;2023-02-18T07:09:57;8.1;;;2.2;;
73315;SDS011;61545;53.726;-0.444;2023-02-18T07:14:57;7.0;;;1.2;;
73315;SDS011;61545;53.726;-0.444;2023-02-18T07:19:57;5.2;;;1.2;;
73315;SDS011;61545;53.726;-0.444;2023-02-18T07:24:57;7.5;;;1.6;;
73315;SDS011;61545;53.726;-0.444;2023-02-18T07:29:57;9.2;;;1.5;;
73315;SDS011;61545;53.726;-0.444;2023-02-18T07:34:57;9.2;;;1.5;;
73315;SDS011;61545;53.726;-0.444;2023-02-18T07:39:57;8.3;;;1.6;;
73315;SDS011;61545;53.726;-0.444;2023-02-18T07:44:57;7.2;;;1.5;;
73315;SDS011;61545;53.726;-0.444;2023-02-18T07:49:57;11.4;;;1.8;;
73315;SDS011;61545;53.726;-0.444;2023-02-18T07:54:57;8.8;;;1.7;;
73315;SDS011;61545;53.726;-0.444;2023-02-18T07:59:57;4.8;;;1.3;;
73315;SDS011;61545;53.726;-0.444;2023-02-18T08:04:57;4.8;;;1.3;;
73315;SDS011;61545;53.726;-0.444;2023-02-18T08:09:57;7.8;;;1.5;;
73315;SDS011;61545;53.726;-0.444;2023-02-18T08:14:57;6.0;;;1.3;;
73315;SDS011;61545;53.726;-0.444;2023-02-18T08:19:57;9.1;;;1.8;;
73315;SDS011;61545;53.726;-0.444;2023-02-18T08:24:57;12.8;;;2.4;;
73315;SDS011;61545;53.726;-0.444;2023-02-18T08:29:57;7.6;;;1.5;;
73315;SDS011;61545;53.726;-0.444;2023-02-18T08:34:57;7.6;;;1.5;;
73315;SDS011;61545;53.726;-0.444;2023-02-18T08:39:57;8.9;;;1.7;;
73315;SDS011;61545;53.726;-0.444;2023-02-18T08:44:57;11.9;;;1.9;;
73315;SDS011;61545;53.726;-0.444;2023-02-18T08:49:57;8.8;;;1.8;;
73315;SDS011;61545;53.726;-0.444;2023-02-18T08:54:57;9.5;;;2.1;;
73315;SDS011;61545;53.726;-0.444;2023-02-18T08:59:57;9.7;;;1.8;;
73315;SDS011;61545;53.726;-0.444;2023-02-18T09:04:57;9.7;;;1.8;;
73315;SDS011;61545;53.726;-0.444;2023-02-18T09:09:57;11.8;;;1.6;;
73315;SDS011;61545;53.726;-0.444;2023-02-18T09:14:57;12.5;;;2.2;;
73315;SDS011;61545;53.726;-0.444;2023-02-18T09:19:57;13.0;;;2.5;;
73315;SDS011;61545;53.726;-0.444;2023-02-18T09:24:57;10.1;;;2.1;;
73315;SDS011;61545;53.726;-0.444;2023-02-18T09:29:57;10.0;;;2;;
73315;SDS011;61545;53.726;-0.444;2023-02-18T09:34:57;10.0;;;2;;
73315;SDS011;61545;53.726;-0.444;2023-02-18T09:39:57;8.1;;;1.7;;
73315;SDS011;61545;53.726;-0.444;2023-02-18T09:44:59;9.0;;;1.7;;
73315;SDS011;61545;53.726;-0.444;2023-02-18T09:49:58;11.0;;;1.7;;
73315;SDS011;61545;53.726;-0.444;2023-02-18T09:54:57;7.1;;;1.8;;
73315;SDS011;61545;53.726;-0.444;2023-02-18T09:59:59;11.3;;;1.5;;
73315;SDS011;61545;53.726;-0.444;2023-02-18T10:04:57;11.3;;;1.5;;
73315;SDS011;61545;53.726;-0.444;2023-02-18T10:10:00;8.3;;;1.7;;
73315;SDS011;61545;53.726;-0.444;2023-02-18T10:14:58;8.9;;;1.7;;
73315;SDS011;61545;53.726;-0.444;2023-02-18T10:19:57;6.7;;;1.5;;
73315;SDS011;61545;53.726;-0.444;2023-02-18T10:24:58;10.1;;;1.9;;
73315;SDS011;61545;53.726;-0.444;2023-02-18T10:29:58;8.7;;;1.9;;
73315;SDS011;61545;53.726;-0.444;2023-02-18T10:34:59;8.7;;;1.9;;
73315;SDS011;61545;53.726;-0.444;2023-02-18T10:40:02;11.8;;;2;;
73315;SDS011;61545;53.726;-0.444;2023-02-18T10:45:03;11.6;;;2.1;;
73315;SDS011;61545;53.726;-0.444;2023-02-18T10:49:58;11.1;;;1.7;;
73315;SDS011;61545;53.726;-0.444;2023-02-18T10:54:58;9.6;;;1.5;;
73315;SDS011;61545;53.726;-0.444;2023-02-18T10:59:59;12.0;;;2.1;;
73315;SDS011;61545;53.726;-0.444;2023-02-18T11:04:58;12.0;;;2.1;;
73315;SDS011;61545;53.726;-0.444;2023-02-18T11:09:58;5.0;;;1.4;;
73315;SDS011;61545;53.726;-0.444;2023-02-18T11:15:29;8.3;;;1.6;;
73315;SDS011;61545;53.726;-0.444;2023-02-18T11:19:58;8.7;;;1.9;;
73315;SDS011;61545;53.726;-0.444;2023-02-18T11:24:58;7.9;;;1.6;;
73315;SDS011;61545;53.726;-0.444;2023-02-18T11:29:59;7.0;;;1.5;;
73315;SDS011;61545;53.726;-0.444;2023-02-18T11:34:57;7.0;;;1.5;;
73315;SDS011;61545;53.726;-0.444;2023-02-18T11:39:57;10.0;;;1.9;;
73315;SDS011;61545;53.726;-0.444;2023-02-18T11:44:58;6.5;;;1.6;;
73315;SDS011;61545;53.726;-0.444;2023-02-18T11:50:00;9.1;;;1.8;;
73315;SDS011;61545;53.726;-0.444;2023-02-18T11:54:59;8.7;;;1.7;;
73315;SDS011;61545;53.726;-0.444;2023-02-18T11:59:57;6.0;;;1.4;;
73315;SDS011;61545;53.726;-0.444;2023-02-18T12:05:00;6.0;;;1.4;;
73315;SDS011;61545;53.726;-0.444;2023-02-18T12:10:00;6.9;;;1.4;;
73315;SDS011;61545;53.726;-0.444;2023-02-18T12:14:58;5.4;;;1.5;;
73315;SDS011;61545;53.726;-0.444;2023-02-18T12:20:05;9.1;;;1.5;;
73315;SDS011;61545;53.726;-0.444;2023-02-18T12:25:06;6.2;;;1.6;;
73315;SDS011;61545;53.726;-0.444;2023-02-18T12:30:10;8.2;;;1.4;;
73315;SDS011;61545;53.726;-0.444;2023-02-18T12:35:06;8.2;;;1.4;;
73315;SDS011;61545;53.726;-0.444;2023-02-18T12:40:03;5.6;;;1.4;;
73315;SDS011;61545;53.726;-0.444;2023-02-18T12:45:06;5.6;;;1.5;;
73315;SDS011;61545;53.726;-0.444;2023-02-18T12:50:02;4.8;;;1;;
73315;SDS011;61545;53.726;-0.444;2023-02-18T12:56:14;9.1;;;1.3;;
73315;SDS011;61545;53.726;-0.444;2023-02-18T13:00:10;6.8;;;1.6;;
73315;SDS011;61545;53.726;-0.444;2023-02-18T13:04:57;6.8;;;1.6;;
73315;SDS011;61545;53.726;-0.444;2023-02-18T13:10:05;5.4;;;1.5;;
73315;SDS011;61545;53.726;-0.444;2023-02-18T13:14:59;9.0;;;1.7;;
73315;SDS011;61545;53.726;-0.444;2023-02-18T13:19:58;6.3;;;1.5;;
73315;SDS011;61545;53.726;-0.444;2023-02-18T13:24:57;5.8;;;1.5;;
73315;SDS011;61545;53.726;-0.444;2023-02-18T13:30:06;4.4;;;1.3;;
73315;SDS011;61545;53.726;-0.444;2023-02-18T13:34:59;4.4;;;1.3;;
73315;SDS011;61545;53.726;-0.444;2023-02-18T13:39:57;3.9;;;1;;
73315;SDS011;61545;53.726;-0.444;2023-02-18T13:45:30;6.8;;;1.5;;
73315;SDS011;61545;53.726;-0.444;2023-02-18T13:49:57;7.0;;;1.4;;
73315;SDS011;61545;53.726;-0.444;2023-02-18T13:54:57;6.3;;;1.2;;
73315;SDS011;61545;53.726;-0.444;2023-02-18T13:59:58;6.8;;;1.6;;
73315;SDS011;61545;53.726;-0.444;2023-02-18T14:05:14;6.8;;;1.6;;
73315;SDS011;61545;53.726;-0.444;2023-02-18T14:09:58;5.5;;;1.4;;
73315;SDS011;61545;53.726;-0.444;2023-02-18T14:14:57;5.4;;;1.2;;
73315;SDS011;61545;53.726;-0.444;2023-02-18T14:20:45;6.0;;;1.3;;
73315;SDS011;61545;53.726;-0.444;2023-02-18T14:25:02;6.9;;;1.5;;
73315;SDS011;61545;53.726;-0.444;2023-02-18T14:30:02;3.4;;;0.9;;
73315;SDS011;61545;53.726;-0.444;2023-02-18T14:35:05;3.4;;;0.9;;
73315;SDS011;61545;53.726;-0.444;2023-02-18T14:40:01;7.1;;;1.4;;
73315;SDS011;61545;53.726;-0.444;2023-02-18T14:45:07;6.5;;;1.4;;
73315;SDS011;61545;53.726;-0.444;2023-02-18T14:49:58;9.1;;;1.7;;
73315;SDS011;61545;53.726;-0.444;2023-02-18T14:54:59;6.3;;;1.2;;
73315;SDS011;61545;53.726;-0.444;2023-02-18T14:59:57;5.4;;;1.2;;
73315;SDS011;61545;53.726;-0.444;2023-02-18T15:05:11;5.4;;;1.2;;
73315;SDS011;61545;53.726;-0.444;2023-02-18T15:09:57;5.6;;;1.3;;
73315;SDS011;61545;53.726;-0.444;2023-02-18T15:15:00;7.8;;;1.6;;
73315;SDS011;61545;53.726;-0.444;2023-02-18T15:19:58;4.7;;;1.3;;
73315;SDS011;61545;53.726;-0.444;2023-02-18T15:24:57;5.0;;;1.2;;
73315;SDS011;61545;53.726;-0.444;2023-02-18T15:29:58;3.4;;;1.1;;
73315;SDS011;61545;53.726;-0.444;2023-02-18T15:34:58;3.4;;;1.1;;
73315;SDS011;61545;53.726;-0.444;2023-02-18T15:39:57;4.1;;;1.3;;
73315;SDS011;61545;53.726;-0.444;2023-02-18T15:45:01;4.6;;;1.2;;
73315;SDS011;61545;53.726;-0.444;2023-02-18T15:49:58;7.4;;;1.4;;
73315;SDS011;61545;53.726;-0.444;2023-02-18T15:55:00;3.0;;;1.2;;
73315;SDS011;61545;53.726;-0.444;2023-02-18T15:59:59;3.0;;;1.2;;
73315;SDS011;61545;53.726;-0.444;2023-02-18T16:04:58;4.5;;;1.2;;
73315;SDS011;61545;53.726;-0.444;2023-02-18T16:10:16;3.4;;;1;;
73315;SDS011;61545;53.726;-0.444;2023-02-18T16:14:57;6.4;;;1.7;;
73315;SDS011;61545;53.726;-0.444;2023-02-18T16:19:59;8.3;;;1.7;;
73315;SDS011;61545;53.726;-0.444;2023-02-18T16:24:58;5.9;;;1.5;;
73315;SDS011;61545;53.726;-0.444;2023-02-18T16:29:59;5.9;;;1.5;;
73315;SDS011;61545;53.726;-0.444;2023-02-18T16:34:57;6.4;;;1.7;;
73315;SDS011;61545;53.726;-0.444;2023-02-18T16:39:57;6.0;;;1.8;;
73315;SDS011;61545;53.726;-0.444;2023-02-18T16:44:57;4.7;;;1.3;;
73315;SDS011;61545;53.726;-0.444;2023-02-18T16:49:57;5.0;;;1.9;;
73315;SDS011;61545;53.726;-0.444;2023-02-18T16:54:57;4.3;;;1.7;;
73315;SDS011;61545;53.726;-0.444;2023-02-18T16:59:57;4.3;;;1.7;;
73315;SDS011;61545;53.726;-0.444;2023-02-18T17:04:59;4.9;;;1.4;;
73315;SDS011;61545;53.726;-0.444;2023-02-18T17:09:57;6.5;;;1.3;;
73315;SDS011;61545;53.726;-0.444;2023-02-18T17:14:57;6.7;;;1.6;;
73315;SDS011;61545;53.726;-0.444;2023-02-18T17:19:57;6.7;;;1.5;;
73315;SDS011;61545;53.726;-0.444;2023-02-18T17:24:57;4.0;;;1.3;;
73315;SDS011;61545;53.726;-0.444;2023-02-18T17:29:57;4.0;;;1.3;;
73315;SDS011;61545;53.726;-0.444;2023-02-18T17:34:57;7.0;;;1.4;;
73315;SDS011;61545;53.726;-0.444;2023-02-18T17:39:57;5.2;;;1.1;;
73315;SDS011;61545;53.726;-0.444;2023-02-18T17:44:57;8.9;;;2.1;;
73315;SDS011;61545;53.726;-0.444;2023-02-18T17:49:57;5.8;;;1.4;;
73315;SDS011;61545;53.726;-0.444;2023-02-18T17:54:57;7.6;;;2;;
73315;SDS011;61545;53.726;-0.444;2023-02-18T17:59:57;7.6;;;2;;
73315;SDS011;61545;53.726;-0.444;2023-02-18T18:04:57;4.8;;;1.6;;
73315;SDS011;61545;53.726;-0.444;2023-02-18T18:09:57;6.5;;;1.9;;
73315;SDS011;61545;53.726;-0.444;2023-02-18T18:14:57;8.5;;;2.3;;
73315;SDS011;61545;53.726;-0.444;2023-02-18T18:19:57;5.9;;;1.9;;
73315;SDS011;61545;53.726;-0.444;2023-02-18T18:24:57;5.5;;;2.1;;
73315;SDS011;61545;53.726;-0.444;2023-02-18T18:29:57;5.5;;;2.1;;
73315;SDS011;61545;53.726;-0.444;2023-02-18T18:34:57;6.9;;;2;;
73315;SDS011;61545;53.726;-0.444;2023-02-18T18:39:57;6.8;;;2;;
73315;SDS011;61545;53.726;-0.444;2023-02-18T18:44:57;4.8;;;1.8;;
73315;SDS011;61545;53.726;-0.444;2023-02-18T18:49:57;6.2;;;1.6;;
73315;SDS011;61545;53.726;-0.444;2023-02-18T18:54:57;4.2;;;1.5;;
73315;SDS011;61545;53.726;-0.444;2023-02-18T18:59:57;4.2;;;1.5;;
73315;SDS011;61545;53.726;-0.444;2023-02-18T19:04:57;4.8;;;1.4;;
73315;SDS011;61545;53.726;-0.444;2023-02-18T19:09:57;5.6;;;1.9;;
73315;SDS011;61545;53.726;-0.444;2023-02-18T19:14:57;6.2;;;2;;
73315;SDS011;61545;53.726;-0.444;2023-02-18T19:19:57;4.2;;;1.8;;
73315;SDS011;61545;53.726;-0.444;2023-02-18T19:24:57;4.8;;;1.5;;
73315;SDS011;61545;53.726;-0.444;2023-02-18T19:29:57;4.8;;;1.5;;
73315;SDS011;61545;53.726;-0.444;2023-02-18T19:34:57;10.2;;;2.5;;
73315;SDS011;61545;53.726;-0.444;2023-02-18T19:39:57;7.4;;;2.4;;
73315;SDS011;61545;53.726;-0.444;2023-02-18T19:44:57;8.8;;;3;;
73315;SDS011;61545;53.726;-0.444;2023-02-18T19:49:58;7.5;;;2.9;;
73315;SDS011;61545;53.726;-0.444;2023-02-18T19:54:57;8.3;;;2.5;;
73315;SDS011;61545;53.726;-0.444;2023-02-18T19:59:57;8.3;;;2.5;;
73315;SDS011;61545;53.726;-0.444;2023-02-18T20:04:58;7.9;;;2.5;;
73315;SDS011;61545;53.726;-0.444;2023-02-18T20:09:57;6.8;;;2.7;;
73315;SDS011;61545;53.726;-0.444;2023-02-18T20:14:57;7.9;;;3.4;;
73315;SDS011;61545;53.726;-0.444;2023-02-18T20:19:57;8.8;;;3.1;;
73315;SDS011;61545;53.726;-0.444;2023-02-18T20:24:58;8.5;;;3.2;;
73315;SDS011;61545;53.726;-0.444;2023-02-18T20:29:58;8.5;;;3.2;;
73315;SDS011;61545;53.726;-0.444;2023-02-18T20:34:57;9.5;;;4;;
73315;SDS011;61545;53.726;-0.444;2023-02-18T20:39:57;7.4;;;2.6;;
73315;SDS011;61545;53.726;-0.444;2023-02-18T20:44:57;4.3;;;1.9;;
73315;SDS011;61545;53.726;-0.444;2023-02-18T20:49:57;4.0;;;1.6;;
73315;SDS011;61545;53.726;-0.444;2023-02-18T20:54:57;4.7;;;1.6;;
73315;SDS011;61545;53.726;-0.444;2023-02-18T20:59:57;4.7;;;1.6;;
73315;SDS011;61545;53.726;-0.444;2023-02-18T21:04:57;4.7;;;2;;
73315;SDS011;61545;53.726;-0.444;2023-02-18T21:09:57;4.4;;;2.3;;
73315;SDS011;61545;53.726;-0.444;2023-02-18T21:14:57;4.3;;;2.9;;
73315;SDS011;61545;53.726;-0.444;2023-02-18T21:19:57;6.6;;;3;;
73315;SDS011;61545;53.726;-0.444;2023-02-18T21:24:57;9.8;;;3.7;;
73315;SDS011;61545;53.726;-0.444;2023-02-18T21:29:57;9.8;;;3.7;;
73315;SDS011;61545;53.726;-0.444;2023-02-18T21:34:57;6.9;;;2.9;;
73315;SDS011;61545;53.726;-0.444;2023-02-18T21:39:57;5.6;;;2.7;;
73315;SDS011;61545;53.726;-0.444;2023-02-18T21:44:57;3.6;;;1.6;;
73315;SDS011;61545;53.726;-0.444;2023-02-18T21:49:57;5.4;;;1.6;;
73315;SDS011;61545;53.726;-0.444;2023-02-18T21:54:57;3.8;;;1.4;;
73315;SDS011;61545;53.726;-0.444;2023-02-18T21:59:57;3.8;;;1.4;;
73315;SDS011;61545;53.726;-0.444;2023-02-18T22:04:58;9.1;;;2;;
73315;SDS011;61545;53.726;-0.444;2023-02-18T22:09:57;6.1;;;1.5;;
73315;SDS011;61545;53.726;-0.444;2023-02-18T22:14:57;6.8;;;1.6;;
73315;SDS011;61545;53.726;-0.444;2023-02-18T22:19:57;7.5;;;1.5;;
73315;SDS011;61545;53.726;-0.444;2023-02-18T22:24:57;4.4;;;1.2;;
73315;SDS011;61545;53.726;-0.444;2023-02-18T22:29:57;4.4;;;1.2;;
73315;SDS011;61545;53.726;-0.444;2023-02-18T22:34:57;7.6;;;1.7;;
73315;SDS011;61545;53.726;-0.444;2023-02-18T22:39:57;6.6;;;1.4;;
73315;SDS011;61545;53.726;-0.444;2023-02-18T22:44:57;6.3;;;1.2;;
73315;SDS011;61545;53.726;-0.444;2023-02-18T22:49:57;7.5;;;1.8;;
73315;SDS011;61545;53.726;-0.444;2023-02-18T22:54:57;5.4;;;1.2;;
73315;SDS011;61545;53.726;-0.444;2023-02-18T22:59:57;5.4;;;1.2;;
73315;SDS011;61545;53.726;-0.444;2023-02-18T23:04:57;8.2;;;1.5;;
73315;SDS011;61545;53.726;-0.444;2023-02-18T23:09:57;10.2;;;2.2;;
73315;SDS011;61545;53.726;-0.444;2023-02-18T23:14:57;6.1;;;1.3;;
73315;SDS011;61545;53.726;-0.444;2023-02-18T23:19:57;5.0;;;1.3;;
73315;SDS011;61545;53.726;-0.444;2023-02-18T23:24:58;7.1;;;1.8;;
73315;SDS011;61545;53.726;-0.444;2023-02-18T23:29:57;7.1;;;1.8;;
73315;SDS011;61545;53.726;-0.444;2023-02-18T23:34:57;7.4;;;2.2;;
73315;SDS011;61545;53.726;-0.444;2023-02-18T23:39:57;7.4;;;1.3;;
73315;SDS011;61545;53.726;-0.444;2023-02-18T23:44:58;5.3;;;1.3;;
73315;SDS011;61545;53.726;-0.444;2023-02-18T23:49:57;7.2;;;1.6;;
73315;SDS011;61545;53.726;-0.444;2023-02-18T23:54:57;5.6;;;1.5;;
73315;SDS011;61545;53.726;-0.444;2023-02-18T23:59:57;5.6;;;1.5;;
